sensor_id;sensor_type;location;lat;lon;timestamp;P1;durP1;ratioP1;P2;durP2;ratioP2
7031;SDS011;3557;48.880;8.328;2022-08-01T00:02:18;2.22;;;2.10;;
7031;SDS011;3557;48.880;8.328;2022-08-01T00:04:45;2.53;;;2.03;;
7031;SDS011;3557;48.880;8.328;2022-08-01T00:07:12;2.30;;;2.00;;
7031;SDS011;3557;48.880;8.328;2022-08-01T00:09:41;3.63;;;2.10;;
7031;SDS011;3557;48.880;8.328;2022-08-01T00:12:08;2.20;;;2.00;;
7031;SDS011;3557;48.880;8.328;2022-08-01T00:14:36;3.20;;;2.08;;
7031;SDS011;3557;48.880;8.328;2022-08-01T00:17:03;3.75;;;2.30;;
7031;SDS011;3557;48.880;8.328;2022-08-01T00:19:30;2.63;;;2.15;;
7031;SDS011;3557;48.880;8.328;2022-08-01T00:21:58;2.15;;;1.95;;
7031;SDS011;3557;48.880;8.328;2022-08-01T00:24:25;2.67;;;2.22;;
7031;SDS011;3557;48.880;8.328;2022-08-01T00:26:53;2.13;;;1.90;;
7031;SDS011;3557;48.880;8.328;2022-08-01T00:29:20;2.22;;;2.00;;
7031;SDS011;3557;48.880;8.328;2022-08-01T00:31:48;2.15;;;2.00;;
7031;SDS011;3557;48.880;8.328;2022-08-01T00:34:15;2.40;;;2.20;;
7031;SDS011;3557;48.880;8.328;2022-08-01T00:36:42;2.78;;;2.22;;
7031;SDS011;3557;48.880;8.328;2022-08-01T00:39:10;1.92;;;1.77;;
7031;SDS011;3557;48.880;8.328;2022-08-01T00:41:37;3.97;;;2.05;;
7031;SDS011;3557;48.880;8.328;2022-08-01T00:44:06;3.00;;;2.25;;
7031;SDS011;3557;48.880;8.328;2022-08-01T00:46:33;2.42;;;2.15;;
7031;SDS011;3557;48.880;8.328;2022-08-01T00:49:01;2.72;;;2.20;;
7031;SDS011;3557;48.880;8.328;2022-08-01T00:51:28;5.78;;;2.10;;
7031;SDS011;3557;48.880;8.328;2022-08-01T00:53:56;3.80;;;2.35;;
7031;SDS011;3557;48.880;8.328;2022-08-01T00:56:24;2.33;;;2.13;;
7031;SDS011;3557;48.880;8.328;2022-08-01T00:58:54;4.30;;;2.08;;
7031;SDS011;3557;48.880;8.328;2022-08-01T01:01:23;2.30;;;2.10;;
7031;SDS011;3557;48.880;8.328;2022-08-01T01:03:51;2.45;;;2.22;;
7031;SDS011;3557;48.880;8.328;2022-08-01T01:06:23;3.90;;;2.17;;
7031;SDS011;3557;48.880;8.328;2022-08-01T01:08:55;4.93;;;2.20;;
7031;SDS011;3557;48.880;8.328;2022-08-01T01:11:31;2.20;;;2.00;;
7031;SDS011;3557;48.880;8.328;2022-08-01T01:14:08;2.25;;;2.05;;
7031;SDS011;3557;48.880;8.328;2022-08-01T01:16:41;2.13;;;2.00;;
7031;SDS011;3557;48.880;8.328;2022-08-01T01:19:10;2.20;;;2.00;;
7031;SDS011;3557;48.880;8.328;2022-08-01T01:22:05;3.22;;;2.10;;
7031;SDS011;3557;48.880;8.328;2022-08-01T01:24:58;7.05;;;2.45;;
7031;SDS011;3557;48.880;8.328;2022-08-01T01:27:39;4.47;;;2.20;;
7031;SDS011;3557;48.880;8.328;2022-08-01T01:30:13;2.33;;;2.13;;
7031;SDS011;3557;48.880;8.328;2022-08-01T01:32:41;2.63;;;2.20;;
7031;SDS011;3557;48.880;8.328;2022-08-01T01:35:14;2.50;;;2.25;;
7031;SDS011;3557;48.880;8.328;2022-08-01T01:37:46;2.95;;;2.10;;
7031;SDS011;3557;48.880;8.328;2022-08-01T01:40:16;2.90;;;2.50;;
7031;SDS011;3557;48.880;8.328;2022-08-01T01:42:46;2.80;;;2.25;;
7031;SDS011;3557;48.880;8.328;2022-08-01T01:45:15;3.45;;;2.50;;
7031;SDS011;3557;48.880;8.328;2022-08-01T01:47:42;2.42;;;2.22;;
7031;SDS011;3557;48.880;8.328;2022-08-01T01:50:10;2.38;;;2.17;;
7031;SDS011;3557;48.880;8.328;2022-08-01T01:52:38;2.35;;;2.10;;
7031;SDS011;3557;48.880;8.328;2022-08-01T01:55:07;2.42;;;2.22;;
7031;SDS011;3557;48.880;8.328;2022-08-01T01:57:36;3.03;;;2.10;;
7031;SDS011;3557;48.880;8.328;2022-08-01T02:00:05;2.47;;;2.20;;
7031;SDS011;3557;48.880;8.328;2022-08-01T02:02:35;4.45;;;2.13;;
7031;SDS011;3557;48.880;8.328;2022-08-01T02:05:03;2.78;;;2.15;;
7031;SDS011;3557;48.880;8.328;2022-08-01T02:07:32;2.40;;;2.20;;
7031;SDS011;3557;48.880;8.328;2022-08-01T02:10:01;2.40;;;2.20;;
7031;SDS011;3557;48.880;8.328;2022-08-01T02:12:30;3.55;;;2.10;;
7031;SDS011;3557;48.880;8.328;2022-08-01T02:15:00;2.40;;;2.20;;
7031;SDS011;3557;48.880;8.328;2022-08-01T02:17:28;2.45;;;2.25;;
7031;SDS011;3557;48.880;8.328;2022-08-01T02:19:58;2.50;;;2.20;;
7031;SDS011;3557;48.880;8.328;2022-08-01T02:22:27;2.33;;;2.13;;
7031;SDS011;3557;48.880;8.328;2022-08-01T02:24:57;2.83;;;2.20;;
7031;SDS011;3557;48.880;8.328;2022-08-01T02:27:30;2.85;;;2.20;;
7031;SDS011;3557;48.880;8.328;2022-08-01T02:30:04;2.75;;;2.10;;
7031;SDS011;3557;48.880;8.328;2022-08-01T02:32:34;2.63;;;2.40;;
7031;SDS011;3557;48.880;8.328;2022-08-01T02:35:07;2.47;;;2.10;;
7031;SDS011;3557;48.880;8.328;2022-08-01T02:37:40;2.58;;;2.15;;
7031;SDS011;3557;48.880;8.328;2022-08-01T02:40:08;2.38;;;2.17;;
7031;SDS011;3557;48.880;8.328;2022-08-01T02:42:37;3.92;;;2.10;;
7031;SDS011;3557;48.880;8.328;2022-08-01T02:45:10;2.80;;;2.30;;
7031;SDS011;3557;48.880;8.328;2022-08-01T02:47:37;2.50;;;2.30;;
7031;SDS011;3557;48.880;8.328;2022-08-01T02:50:09;4.15;;;2.33;;
7031;SDS011;3557;48.880;8.328;2022-08-01T02:52:38;3.30;;;2.55;;
7031;SDS011;3557;48.880;8.328;2022-08-01T02:55:08;2.35;;;2.15;;
7031;SDS011;3557;48.880;8.328;2022-08-01T02:57:38;3.83;;;2.45;;
7031;SDS011;3557;48.880;8.328;2022-08-01T03:00:07;4.97;;;2.50;;
7031;SDS011;3557;48.880;8.328;2022-08-01T03:02:36;3.15;;;2.20;;
7031;SDS011;3557;48.880;8.328;2022-08-01T03:05:05;3.72;;;2.40;;
7031;SDS011;3557;48.880;8.328;2022-08-01T03:07:35;2.80;;;2.60;;
7031;SDS011;3557;48.880;8.328;2022-08-01T03:10:04;2.58;;;2.38;;
7031;SDS011;3557;48.880;8.328;2022-08-01T03:12:33;3.63;;;2.35;;
7031;SDS011;3557;48.880;8.328;2022-08-01T03:15:01;3.00;;;2.70;;
7031;SDS011;3557;48.880;8.328;2022-08-01T03:17:29;2.42;;;2.22;;
7031;SDS011;3557;48.880;8.328;2022-08-01T03:19:58;3.55;;;2.33;;
7031;SDS011;3557;48.880;8.328;2022-08-01T03:22:26;3.15;;;2.53;;
7031;SDS011;3557;48.880;8.328;2022-08-01T03:24:56;3.00;;;2.30;;
7031;SDS011;3557;48.880;8.328;2022-08-01T03:27:25;3.75;;;2.63;;
7031;SDS011;3557;48.880;8.328;2022-08-01T03:29:54;3.40;;;2.30;;
7031;SDS011;3557;48.880;8.328;2022-08-01T03:32:22;2.90;;;2.60;;
7031;SDS011;3557;48.880;8.328;2022-08-01T03:34:50;3.35;;;2.55;;
7031;SDS011;3557;48.880;8.328;2022-08-01T03:37:19;2.55;;;2.35;;
7031;SDS011;3557;48.880;8.328;2022-08-01T03:39:52;2.75;;;2.45;;
7031;SDS011;3557;48.880;8.328;2022-08-01T03:42:26;3.00;;;2.33;;
7031;SDS011;3557;48.880;8.328;2022-08-01T03:44:59;2.80;;;2.38;;
7031;SDS011;3557;48.880;8.328;2022-08-01T03:47:30;3.28;;;2.50;;
7031;SDS011;3557;48.880;8.328;2022-08-01T03:50:00;2.55;;;2.35;;
7031;SDS011;3557;48.880;8.328;2022-08-01T03:52:29;2.90;;;2.30;;
7031;SDS011;3557;48.880;8.328;2022-08-01T03:55:01;3.30;;;2.35;;
7031;SDS011;3557;48.880;8.328;2022-08-01T03:57:30;3.03;;;2.38;;
7031;SDS011;3557;48.880;8.328;2022-08-01T03:59:57;3.35;;;2.40;;
7031;SDS011;3557;48.880;8.328;2022-08-01T04:02:26;3.28;;;2.55;;
7031;SDS011;3557;48.880;8.328;2022-08-01T04:04:53;2.45;;;2.25;;
7031;SDS011;3557;48.880;8.328;2022-08-01T04:07:21;2.42;;;2.22;;
7031;SDS011;3557;48.880;8.328;2022-08-01T04:09:49;3.40;;;2.50;;
7031;SDS011;3557;48.880;8.328;2022-08-01T04:12:19;3.33;;;2.40;;
7031;SDS011;3557;48.880;8.328;2022-08-01T04:14:46;2.80;;;2.53;;
7031;SDS011;3557;48.880;8.328;2022-08-01T04:17:14;2.92;;;2.25;;
7031;SDS011;3557;48.880;8.328;2022-08-01T04:19:41;4.38;;;2.65;;
7031;SDS011;3557;48.880;8.328;2022-08-01T04:22:10;3.42;;;2.20;;
7031;SDS011;3557;48.880;8.328;2022-08-01T04:24:39;3.20;;;2.47;;
7031;SDS011;3557;48.880;8.328;2022-08-01T04:27:09;2.33;;;2.13;;
7031;SDS011;3557;48.880;8.328;2022-08-01T04:29:40;2.60;;;2.40;;
7031;SDS011;3557;48.880;8.328;2022-08-01T04:32:10;2.88;;;2.55;;
7031;SDS011;3557;48.880;8.328;2022-08-01T04:34:39;2.80;;;2.25;;
7031;SDS011;3557;48.880;8.328;2022-08-01T04:37:09;3.90;;;2.17;;
7031;SDS011;3557;48.880;8.328;2022-08-01T04:39:36;2.47;;;2.28;;
7031;SDS011;3557;48.880;8.328;2022-08-01T04:42:04;3.05;;;2.33;;
7031;SDS011;3557;48.880;8.328;2022-08-01T04:44:32;4.28;;;2.20;;
7031;SDS011;3557;48.880;8.328;2022-08-01T04:47:01;2.72;;;2.25;;
7031;SDS011;3557;48.880;8.328;2022-08-01T04:49:30;2.78;;;2.28;;
7031;SDS011;3557;48.880;8.328;2022-08-01T04:51:57;2.40;;;2.05;;
7031;SDS011;3557;48.880;8.328;2022-08-01T04:54:25;2.25;;;2.05;;
7031;SDS011;3557;48.880;8.328;2022-08-01T04:56:53;5.05;;;2.25;;
7031;SDS011;3557;48.880;8.328;2022-08-01T04:59:24;3.22;;;2.25;;
7031;SDS011;3557;48.880;8.328;2022-08-01T05:02:10;3.33;;;2.25;;
7031;SDS011;3557;48.880;8.328;2022-08-01T05:04:39;3.50;;;2.28;;
7031;SDS011;3557;48.880;8.328;2022-08-01T05:07:07;4.43;;;2.20;;
7031;SDS011;3557;48.880;8.328;2022-08-01T05:09:35;2.25;;;2.00;;
7031;SDS011;3557;48.880;8.328;2022-08-01T05:12:04;2.65;;;2.17;;
7031;SDS011;3557;48.880;8.328;2022-08-01T05:14:32;2.95;;;2.20;;
7031;SDS011;3557;48.880;8.328;2022-08-01T05:16:59;2.30;;;2.00;;
7031;SDS011;3557;48.880;8.328;2022-08-01T05:19:29;3.85;;;2.10;;
7031;SDS011;3557;48.880;8.328;2022-08-01T05:21:57;2.40;;;2.20;;
7031;SDS011;3557;48.880;8.328;2022-08-01T05:24:26;2.50;;;2.13;;
7031;SDS011;3557;48.880;8.328;2022-08-01T05:26:54;3.60;;;2.10;;
7031;SDS011;3557;48.880;8.328;2022-08-01T05:29:22;2.22;;;2.03;;
7031;SDS011;3557;48.880;8.328;2022-08-01T05:31:50;2.80;;;2.10;;
7031;SDS011;3557;48.880;8.328;2022-08-01T05:34:17;4.68;;;3.95;;
7031;SDS011;3557;48.880;8.328;2022-08-01T05:36:47;2.58;;;2.25;;
7031;SDS011;3557;48.880;8.328;2022-08-01T05:39:14;2.95;;;1.98;;
7031;SDS011;3557;48.880;8.328;2022-08-01T05:41:41;2.58;;;2.00;;
7031;SDS011;3557;48.880;8.328;2022-08-01T05:44:09;2.40;;;2.20;;
7031;SDS011;3557;48.880;8.328;2022-08-01T05:46:36;2.25;;;2.05;;
7031;SDS011;3557;48.880;8.328;2022-08-01T05:49:04;4.35;;;2.20;;
7031;SDS011;3557;48.880;8.328;2022-08-01T05:51:31;2.30;;;2.10;;
7031;SDS011;3557;48.880;8.328;2022-08-01T05:54:00;2.25;;;2.05;;
7031;SDS011;3557;48.880;8.328;2022-08-01T05:56:27;3.17;;;2.10;;
7031;SDS011;3557;48.880;8.328;2022-08-01T05:58:55;2.85;;;2.10;;
7031;SDS011;3557;48.880;8.328;2022-08-01T06:01:22;2.88;;;2.10;;
7031;SDS011;3557;48.880;8.328;2022-08-01T06:03:49;2.40;;;2.20;;
7031;SDS011;3557;48.880;8.328;2022-08-01T06:06:17;2.45;;;1.88;;
7031;SDS011;3557;48.880;8.328;2022-08-01T06:08:45;2.42;;;2.10;;
7031;SDS011;3557;48.880;8.328;2022-08-01T06:11:13;2.40;;;2.03;;
7031;SDS011;3557;48.880;8.328;2022-08-01T06:13:40;2.60;;;2.05;;
7031;SDS011;3557;48.880;8.328;2022-08-01T06:16:07;3.47;;;2.00;;
7031;SDS011;3557;48.880;8.328;2022-08-01T06:18:35;3.20;;;2.13;;
7031;SDS011;3557;48.880;8.328;2022-08-01T06:21:02;5.53;;;2.20;;
7031;SDS011;3557;48.880;8.328;2022-08-01T06:23:29;3.08;;;2.42;;
7031;SDS011;3557;48.880;8.328;2022-08-01T06:25:57;2.25;;;1.95;;
7031;SDS011;3557;48.880;8.328;2022-08-01T06:28:25;4.53;;;2.20;;
7031;SDS011;3557;48.880;8.328;2022-08-01T06:30:52;2.25;;;2.05;;
7031;SDS011;3557;48.880;8.328;2022-08-01T06:33:19;2.10;;;2.00;;
7031;SDS011;3557;48.880;8.328;2022-08-01T06:35:47;2.30;;;1.85;;
7031;SDS011;3557;48.880;8.328;2022-08-01T06:38:14;3.60;;;2.25;;
7031;SDS011;3557;48.880;8.328;2022-08-01T06:40:41;2.70;;;2.28;;
7031;SDS011;3557;48.880;8.328;2022-08-01T06:43:08;2.42;;;2.20;;
7031;SDS011;3557;48.880;8.328;2022-08-01T06:45:38;2.58;;;2.03;;
7031;SDS011;3557;48.880;8.328;2022-08-01T06:48:05;2.17;;;1.98;;
7031;SDS011;3557;48.880;8.328;2022-08-01T06:50:33;3.65;;;2.13;;
7031;SDS011;3557;48.880;8.328;2022-08-01T06:53:01;3.50;;;2.65;;
7031;SDS011;3557;48.880;8.328;2022-08-01T06:55:29;2.15;;;1.95;;
7031;SDS011;3557;48.880;8.328;2022-08-01T06:57:56;3.30;;;2.20;;
7031;SDS011;3557;48.880;8.328;2022-08-01T07:00:24;2.63;;;2.00;;
7031;SDS011;3557;48.880;8.328;2022-08-01T07:02:53;6.07;;;2.22;;
7031;SDS011;3557;48.880;8.328;2022-08-01T07:05:22;3.00;;;2.10;;
7031;SDS011;3557;48.880;8.328;2022-08-01T07:07:49;3.05;;;2.28;;
7031;SDS011;3557;48.880;8.328;2022-08-01T07:10:17;2.08;;;1.70;;
7031;SDS011;3557;48.880;8.328;2022-08-01T07:12:44;2.33;;;2.13;;
7031;SDS011;3557;48.880;8.328;2022-08-01T07:15:11;2.28;;;2.00;;
7031;SDS011;3557;48.880;8.328;2022-08-01T07:17:39;2.20;;;2.00;;
7031;SDS011;3557;48.880;8.328;2022-08-01T07:20:09;2.35;;;2.05;;
7031;SDS011;3557;48.880;8.328;2022-08-01T07:22:38;2.30;;;1.92;;
7031;SDS011;3557;48.880;8.328;2022-08-01T07:25:05;2.35;;;2.00;;
7031;SDS011;3557;48.880;8.328;2022-08-01T07:27:33;2.67;;;1.98;;
7031;SDS011;3557;48.880;8.328;2022-08-01T07:30:01;6.30;;;2.17;;
7031;SDS011;3557;48.880;8.328;2022-08-01T07:32:29;5.40;;;2.17;;
7031;SDS011;3557;48.880;8.328;2022-08-01T07:34:56;3.55;;;2.20;;
7031;SDS011;3557;48.880;8.328;2022-08-01T07:37:25;2.25;;;2.03;;
7031;SDS011;3557;48.880;8.328;2022-08-01T07:39:52;7.63;;;2.28;;
7031;SDS011;3557;48.880;8.328;2022-08-01T07:42:19;4.72;;;2.00;;
7031;SDS011;3557;48.880;8.328;2022-08-01T07:44:46;3.75;;;2.20;;
7031;SDS011;3557;48.880;8.328;2022-08-01T07:47:14;5.07;;;2.15;;
7031;SDS011;3557;48.880;8.328;2022-08-01T07:49:41;3.88;;;2.28;;
7031;SDS011;3557;48.880;8.328;2022-08-01T07:52:08;2.97;;;2.35;;
7031;SDS011;3557;48.880;8.328;2022-08-01T07:54:37;2.75;;;2.08;;
7031;SDS011;3557;48.880;8.328;2022-08-01T07:57:04;3.15;;;2.00;;
7031;SDS011;3557;48.880;8.328;2022-08-01T07:59:32;6.13;;;2.20;;
7031;SDS011;3557;48.880;8.328;2022-08-01T08:01:59;2.33;;;2.13;;
7031;SDS011;3557;48.880;8.328;2022-08-01T08:04:26;2.70;;;2.20;;
7031;SDS011;3557;48.880;8.328;2022-08-01T08:06:54;2.95;;;2.00;;
7031;SDS011;3557;48.880;8.328;2022-08-01T08:09:21;6.30;;;2.30;;
7031;SDS011;3557;48.880;8.328;2022-08-01T08:11:50;3.58;;;2.10;;
7031;SDS011;3557;48.880;8.328;2022-08-01T08:14:17;3.38;;;2.13;;
7031;SDS011;3557;48.880;8.328;2022-08-01T08:16:47;2.83;;;2.13;;
7031;SDS011;3557;48.880;8.328;2022-08-01T08:19:14;7.03;;;2.25;;
7031;SDS011;3557;48.880;8.328;2022-08-01T08:21:42;2.80;;;2.03;;
7031;SDS011;3557;48.880;8.328;2022-08-01T08:24:09;4.47;;;2.08;;
7031;SDS011;3557;48.880;8.328;2022-08-01T08:26:45;4.90;;;1.98;;
7031;SDS011;3557;48.880;8.328;2022-08-01T08:29:14;2.40;;;2.17;;
7031;SDS011;3557;48.880;8.328;2022-08-01T08:31:41;4.13;;;2.00;;
7031;SDS011;3557;48.880;8.328;2022-08-01T08:34:09;2.67;;;2.00;;
7031;SDS011;3557;48.880;8.328;2022-08-01T08:36:36;2.10;;;1.90;;
7031;SDS011;3557;48.880;8.328;2022-08-01T08:39:04;4.78;;;2.08;;
7031;SDS011;3557;48.880;8.328;2022-08-01T08:41:32;1.92;;;1.83;;
7031;SDS011;3557;48.880;8.328;2022-08-01T08:44:00;2.83;;;2.00;;
7031;SDS011;3557;48.880;8.328;2022-08-01T08:46:28;2.33;;;1.77;;
7031;SDS011;3557;48.880;8.328;2022-08-01T08:49:00;2.00;;;1.80;;
7031;SDS011;3557;48.880;8.328;2022-08-01T08:51:29;2.55;;;1.70;;
7031;SDS011;3557;48.880;8.328;2022-08-01T08:53:57;2.45;;;1.80;;
7031;SDS011;3557;48.880;8.328;2022-08-01T08:56:25;4.32;;;1.90;;
7031;SDS011;3557;48.880;8.328;2022-08-01T08:58:55;3.38;;;1.85;;
7031;SDS011;3557;48.880;8.328;2022-08-01T09:01:22;2.78;;;1.95;;
7031;SDS011;3557;48.880;8.328;2022-08-01T09:03:50;3.97;;;1.70;;
7031;SDS011;3557;48.880;8.328;2022-08-01T09:06:18;1.88;;;1.77;;
7031;SDS011;3557;48.880;8.328;2022-08-01T09:08:45;2.50;;;1.90;;
7031;SDS011;3557;48.880;8.328;2022-08-01T09:11:13;1.80;;;1.70;;
7031;SDS011;3557;48.880;8.328;2022-08-01T09:13:40;2.60;;;2.05;;
7031;SDS011;3557;48.880;8.328;2022-08-01T09:16:07;2.10;;;2.00;;
7031;SDS011;3557;48.880;8.328;2022-08-01T09:18:37;2.80;;;2.08;;
7031;SDS011;3557;48.880;8.328;2022-08-01T09:21:11;6.45;;;1.90;;
7031;SDS011;3557;48.880;8.328;2022-08-01T09:23:42;4.18;;;2.10;;
7031;SDS011;3557;48.880;8.328;2022-08-01T09:26:11;2.45;;;2.00;;
7031;SDS011;3557;48.880;8.328;2022-08-01T09:28:40;2.05;;;1.85;;
7031;SDS011;3557;48.880;8.328;2022-08-01T09:31:08;8.73;;;2.20;;
7031;SDS011;3557;48.880;8.328;2022-08-01T09:33:48;6.93;;;2.00;;
7031;SDS011;3557;48.880;8.328;2022-08-01T09:36:21;4.05;;;2.28;;
7031;SDS011;3557;48.880;8.328;2022-08-01T09:38:51;19.63;;;3.05;;
7031;SDS011;3557;48.880;8.328;2022-08-01T09:41:28;3.55;;;2.42;;
7031;SDS011;3557;48.880;8.328;2022-08-01T09:43:57;2.60;;;2.28;;
7031;SDS011;3557;48.880;8.328;2022-08-01T09:46:24;2.58;;;2.30;;
7031;SDS011;3557;48.880;8.328;2022-08-01T09:48:55;3.35;;;2.40;;
7031;SDS011;3557;48.880;8.328;2022-08-01T09:51:29;4.72;;;2.65;;
7031;SDS011;3557;48.880;8.328;2022-08-01T09:53:58;2.30;;;2.10;;
7031;SDS011;3557;48.880;8.328;2022-08-01T09:56:25;2.30;;;2.10;;
7031;SDS011;3557;48.880;8.328;2022-08-01T09:59:02;4.78;;;1.98;;
7031;SDS011;3557;48.880;8.328;2022-08-01T10:01:41;2.80;;;2.33;;
7031;SDS011;3557;48.880;8.328;2022-08-01T10:04:11;6.28;;;2.28;;
7031;SDS011;3557;48.880;8.328;2022-08-01T10:06:42;8.75;;;2.10;;
7031;SDS011;3557;48.880;8.328;2022-08-01T10:09:14;2.25;;;1.98;;
7031;SDS011;3557;48.880;8.328;2022-08-01T10:11:42;4.65;;;2.10;;
7031;SDS011;3557;48.880;8.328;2022-08-01T10:14:09;2.80;;;2.08;;
7031;SDS011;3557;48.880;8.328;2022-08-01T10:16:38;3.75;;;2.22;;
7031;SDS011;3557;48.880;8.328;2022-08-01T10:19:06;4.72;;;2.00;;
7031;SDS011;3557;48.880;8.328;2022-08-01T10:21:34;3.05;;;2.10;;
7031;SDS011;3557;48.880;8.328;2022-08-01T10:24:06;3.63;;;2.20;;
7031;SDS011;3557;48.880;8.328;2022-08-01T10:26:35;4.53;;;1.98;;
7031;SDS011;3557;48.880;8.328;2022-08-01T10:29:05;2.33;;;2.13;;
7031;SDS011;3557;48.880;8.328;2022-08-01T10:31:32;2.20;;;2.00;;
7031;SDS011;3557;48.880;8.328;2022-08-01T10:33:59;3.20;;;1.88;;
7031;SDS011;3557;48.880;8.328;2022-08-01T10:36:27;2.92;;;2.00;;
7031;SDS011;3557;48.880;8.328;2022-08-01T10:38:56;4.40;;;2.38;;
7031;SDS011;3557;48.880;8.328;2022-08-01T10:41:25;2.33;;;2.00;;
7031;SDS011;3557;48.880;8.328;2022-08-01T10:43:54;5.35;;;2.45;;
7031;SDS011;3557;48.880;8.328;2022-08-01T10:46:21;4.28;;;2.08;;
7031;SDS011;3557;48.880;8.328;2022-08-01T10:48:50;8.80;;;2.53;;
7031;SDS011;3557;48.880;8.328;2022-08-01T10:51:22;2.67;;;1.90;;
7031;SDS011;3557;48.880;8.328;2022-08-01T10:53:52;2.10;;;1.90;;
7031;SDS011;3557;48.880;8.328;2022-08-01T10:56:20;2.92;;;1.90;;
7031;SDS011;3557;48.880;8.328;2022-08-01T10:58:51;3.17;;;2.63;;
7031;SDS011;3557;48.880;8.328;2022-08-01T11:01:29;2.50;;;2.20;;
7031;SDS011;3557;48.880;8.328;2022-08-01T11:04:02;6.45;;;2.17;;
7031;SDS011;3557;48.880;8.328;2022-08-01T11:06:40;2.30;;;2.10;;
7031;SDS011;3557;48.880;8.328;2022-08-01T11:09:30;2.40;;;2.20;;
7031;SDS011;3557;48.880;8.328;2022-08-01T11:12:06;5.65;;;1.90;;
7031;SDS011;3557;48.880;8.328;2022-08-01T11:17:52;3.30;;;2.15;;
7031;SDS011;3557;48.880;8.328;2022-08-01T11:20:21;3.40;;;2.30;;
7031;SDS011;3557;48.880;8.328;2022-08-01T11:26:09;1.90;;;1.80;;
7031;SDS011;3557;48.880;8.328;2022-08-01T11:28:41;3.13;;;2.15;;
7031;SDS011;3557;48.880;8.328;2022-08-01T11:31:28;2.00;;;1.90;;
7031;SDS011;3557;48.880;8.328;2022-08-01T11:33:57;2.03;;;1.90;;
7031;SDS011;3557;48.880;8.328;2022-08-01T11:36:25;2.20;;;1.88;;
7031;SDS011;3557;48.880;8.328;2022-08-01T11:39:12;2.67;;;1.90;;
7031;SDS011;3557;48.880;8.328;2022-08-01T11:41:50;2.53;;;2.08;;
7031;SDS011;3557;48.880;8.328;2022-08-01T11:44:22;4.47;;;2.08;;
7031;SDS011;3557;48.880;8.328;2022-08-01T11:46:54;5.20;;;2.38;;
7031;SDS011;3557;48.880;8.328;2022-08-01T11:49:28;3.30;;;2.00;;
7031;SDS011;3557;48.880;8.328;2022-08-01T11:52:13;6.20;;;1.95;;
7031;SDS011;3557;48.880;8.328;2022-08-01T11:54:42;2.10;;;1.90;;
7031;SDS011;3557;48.880;8.328;2022-08-01T11:57:13;2.80;;;1.95;;
7031;SDS011;3557;48.880;8.328;2022-08-01T11:59:46;2.35;;;2.00;;
7031;SDS011;3557;48.880;8.328;2022-08-01T12:02:18;2.92;;;2.00;;
7031;SDS011;3557;48.880;8.328;2022-08-01T12:04:52;1.83;;;1.70;;
7031;SDS011;3557;48.880;8.328;2022-08-01T12:07:22;1.92;;;1.75;;
7031;SDS011;3557;48.880;8.328;2022-08-01T12:09:57;2.08;;;1.90;;
7031;SDS011;3557;48.880;8.328;2022-08-01T12:12:29;3.67;;;1.90;;
7031;SDS011;3557;48.880;8.328;2022-08-01T12:14:57;3.30;;;1.80;;
7031;SDS011;3557;48.880;8.328;2022-08-01T12:17:33;1.98;;;1.60;;
7031;SDS011;3557;48.880;8.328;2022-08-01T12:20:03;2.22;;;1.70;;
7031;SDS011;3557;48.880;8.328;2022-08-01T12:22:33;1.90;;;1.80;;
7031;SDS011;3557;48.880;8.328;2022-08-01T12:25:07;1.80;;;1.70;;
7031;SDS011;3557;48.880;8.328;2022-08-01T12:27:38;1.77;;;1.65;;
7031;SDS011;3557;48.880;8.328;2022-08-01T12:30:07;2.20;;;1.60;;
7031;SDS011;3557;48.880;8.328;2022-08-01T12:32:37;1.75;;;1.65;;
7031;SDS011;3557;48.880;8.328;2022-08-01T12:35:07;6.53;;;2.22;;
7031;SDS011;3557;48.880;8.328;2022-08-01T12:37:36;3.70;;;1.90;;
7031;SDS011;3557;48.880;8.328;2022-08-01T12:40:12;2.25;;;1.85;;
7031;SDS011;3557;48.880;8.328;2022-08-01T12:42:42;2.20;;;2.00;;
7031;SDS011;3557;48.880;8.328;2022-08-01T12:45:12;2.00;;;1.80;;
7031;SDS011;3557;48.880;8.328;2022-08-01T12:47:41;1.95;;;1.73;;
7031;SDS011;3557;48.880;8.328;2022-08-01T12:50:11;2.30;;;1.90;;
7031;SDS011;3557;48.880;8.328;2022-08-01T12:52:40;2.83;;;1.83;;
7031;SDS011;3557;48.880;8.328;2022-08-01T12:55:09;1.60;;;1.50;;
7031;SDS011;3557;48.880;8.328;2022-08-01T12:57:40;1.77;;;1.65;;
7031;SDS011;3557;48.880;8.328;2022-08-01T13:00:14;3.22;;;1.77;;
7031;SDS011;3557;48.880;8.328;2022-08-01T13:02:49;1.70;;;1.60;;
7031;SDS011;3557;48.880;8.328;2022-08-01T13:05:26;2.75;;;1.70;;
7031;SDS011;3557;48.880;8.328;2022-08-01T13:07:53;2.00;;;1.85;;
7031;SDS011;3557;48.880;8.328;2022-08-01T13:10:24;2.13;;;1.90;;
7031;SDS011;3557;48.880;8.328;2022-08-01T13:12:55;2.53;;;1.70;;
7031;SDS011;3557;48.880;8.328;2022-08-01T13:15:26;1.70;;;1.60;;
7031;SDS011;3557;48.880;8.328;2022-08-01T13:17:57;3.20;;;2.60;;
7031;SDS011;3557;48.880;8.328;2022-08-01T13:20:31;1.80;;;1.70;;
7031;SDS011;3557;48.880;8.328;2022-08-01T13:23:10;1.90;;;1.80;;
7031;SDS011;3557;48.880;8.328;2022-08-01T13:25:48;1.73;;;1.63;;
7031;SDS011;3557;48.880;8.328;2022-08-01T13:28:20;1.92;;;1.60;;
7031;SDS011;3557;48.880;8.328;2022-08-01T13:30:56;1.70;;;1.60;;
7031;SDS011;3557;48.880;8.328;2022-08-01T13:33:25;2.08;;;1.55;;
7031;SDS011;3557;48.880;8.328;2022-08-01T13:35:55;6.53;;;2.38;;
7031;SDS011;3557;48.880;8.328;2022-08-01T13:38:22;2.17;;;1.70;;
7031;SDS011;3557;48.880;8.328;2022-08-01T13:41:03;1.70;;;1.60;;
7031;SDS011;3557;48.880;8.328;2022-08-01T13:43:33;1.88;;;1.77;;
7031;SDS011;3557;48.880;8.328;2022-08-01T13:46:01;5.32;;;1.70;;
7031;SDS011;3557;48.880;8.328;2022-08-01T13:48:29;1.67;;;1.58;;
7031;SDS011;3557;48.880;8.328;2022-08-01T13:50:58;1.70;;;1.50;;
7031;SDS011;3557;48.880;8.328;2022-08-01T13:53:25;1.52;;;1.42;;
7031;SDS011;3557;48.880;8.328;2022-08-01T13:55:53;2.13;;;1.60;;
7031;SDS011;3557;48.880;8.328;2022-08-01T13:58:20;2.75;;;1.60;;
7031;SDS011;3557;48.880;8.328;2022-08-01T14:00:49;2.05;;;1.52;;
7031;SDS011;3557;48.880;8.328;2022-08-01T14:03:16;1.90;;;1.63;;
7031;SDS011;3557;48.880;8.328;2022-08-01T14:05:43;3.65;;;1.50;;
7031;SDS011;3557;48.880;8.328;2022-08-01T14:08:11;4.88;;;1.30;;
7031;SDS011;3557;48.880;8.328;2022-08-01T14:10:38;1.50;;;1.40;;
7031;SDS011;3557;48.880;8.328;2022-08-01T14:13:05;1.65;;;1.50;;
7031;SDS011;3557;48.880;8.328;2022-08-01T14:15:32;3.15;;;1.20;;
7031;SDS011;3557;48.880;8.328;2022-08-01T14:18:01;3.00;;;1.50;;
7031;SDS011;3557;48.880;8.328;2022-08-01T14:20:28;2.35;;;1.65;;
7031;SDS011;3557;48.880;8.328;2022-08-01T14:22:55;1.92;;;1.40;;
7031;SDS011;3557;48.880;8.328;2022-08-01T14:25:22;1.50;;;1.40;;
7031;SDS011;3557;48.880;8.328;2022-08-01T14:27:49;1.65;;;1.40;;
7031;SDS011;3557;48.880;8.328;2022-08-01T14:30:16;1.40;;;1.30;;
7031;SDS011;3557;48.880;8.328;2022-08-01T14:32:44;2.63;;;1.30;;
7031;SDS011;3557;48.880;8.328;2022-08-01T14:35:12;1.50;;;1.40;;
7031;SDS011;3557;48.880;8.328;2022-08-01T14:37:39;5.13;;;1.30;;
7031;SDS011;3557;48.880;8.328;2022-08-01T14:40:07;1.65;;;1.30;;
7031;SDS011;3557;48.880;8.328;2022-08-01T14:42:35;1.40;;;1.30;;
7031;SDS011;3557;48.880;8.328;2022-08-01T14:45:04;4.07;;;1.60;;
7031;SDS011;3557;48.880;8.328;2022-08-01T14:47:34;1.92;;;1.42;;
7031;SDS011;3557;48.880;8.328;2022-08-01T14:50:03;1.67;;;1.58;;
7031;SDS011;3557;48.880;8.328;2022-08-01T14:52:32;1.30;;;1.20;;
7031;SDS011;3557;48.880;8.328;2022-08-01T14:55:00;1.30;;;1.20;;
7031;SDS011;3557;48.880;8.328;2022-08-01T14:57:27;1.30;;;1.20;;
7031;SDS011;3557;48.880;8.328;2022-08-01T14:59:55;1.60;;;1.27;;
7031;SDS011;3557;48.880;8.328;2022-08-01T15:02:22;1.50;;;1.27;;
7031;SDS011;3557;48.880;8.328;2022-08-01T15:04:49;2.40;;;1.38;;
7031;SDS011;3557;48.880;8.328;2022-08-01T15:07:17;4.07;;;1.40;;
7031;SDS011;3557;48.880;8.328;2022-08-01T15:09:46;1.65;;;1.50;;
7031;SDS011;3557;48.880;8.328;2022-08-01T15:12:13;1.50;;;1.40;;
7031;SDS011;3557;48.880;8.328;2022-08-01T15:14:40;3.40;;;1.58;;
7031;SDS011;3557;48.880;8.328;2022-08-01T15:17:17;4.15;;;1.50;;
7031;SDS011;3557;48.880;8.328;2022-08-01T15:19:45;1.40;;;1.30;;
7031;SDS011;3557;48.880;8.328;2022-08-01T15:22:13;1.40;;;1.30;;
7031;SDS011;3557;48.880;8.328;2022-08-01T15:24:40;2.20;;;1.50;;
7031;SDS011;3557;48.880;8.328;2022-08-01T15:27:09;1.20;;;1.20;;
7031;SDS011;3557;48.880;8.328;2022-08-01T15:29:36;2.83;;;1.30;;
7031;SDS011;3557;48.880;8.328;2022-08-01T15:32:04;2.83;;;1.50;;
7031;SDS011;3557;48.880;8.328;2022-08-01T15:34:32;1.50;;;1.40;;
7031;SDS011;3557;48.880;8.328;2022-08-01T15:37:00;1.40;;;1.30;;